createdAt,value
2018-01-04T00:00:49.687Z,5.93
2018-01-04T00:03:18.039Z,5.70
2018-01-04T00:05:46.467Z,5.20
2018-01-04T00:08:14.837Z,6.07
2018-01-04T00:10:43.195Z,6.40
2018-01-04T00:13:11.652Z,6.90
2018-01-04T00:15:40.008Z,7.60
2018-01-04T00:18:08.397Z,6.10
2018-01-04T00:20:36.771Z,5.73
2018-01-04T00:23:05.146Z,7.70
2018-01-04T00:25:33.511Z,6.07
2018-01-04T00:28:01.905Z,6.77
2018-01-04T00:30:30.284Z,7.33
2018-01-04T00:32:58.665Z,6.23
2018-01-04T00:35:27.068Z,6.53
2018-01-04T00:37:55.426Z,6.07
2018-01-04T00:40:23.776Z,5.60
2018-01-04T00:42:52.167Z,6.40
2018-01-04T00:45:20.518Z,5.93
2018-01-04T00:47:48.888Z,6.90
2018-01-04T00:50:17.280Z,6.50
2018-01-04T00:52:45.645Z,6.80
2018-01-04T00:55:14.066Z,6.47
2018-01-04T00:57:42.419Z,7.07
2018-01-04T01:00:10.879Z,6.80
2018-01-04T01:02:39.242Z,6.13
2018-01-04T01:05:07.622Z,6.47
2018-01-04T01:07:36.023Z,7.27
2018-01-04T01:10:04.446Z,8.03
2018-01-04T01:12:32.802Z,6.77
2018-01-04T01:15:01.157Z,6.80
2018-01-04T01:17:29.580Z,7.20
2018-01-04T01:19:57.946Z,7.63
2018-01-04T01:22:26.338Z,7.93
2018-01-04T01:24:54.691Z,6.53
2018-01-04T01:27:23.036Z,6.50
2018-01-04T01:29:51.387Z,7.70
2018-01-04T01:32:19.751Z,6.87
2018-01-04T01:34:48.144Z,7.07
2018-01-04T01:37:16.618Z,6.07
2018-01-04T01:39:45.027Z,9.63
2018-01-04T01:42:13.366Z,5.80
2018-01-04T01:44:41.722Z,6.50
2018-01-04T01:47:10.106Z,7.90
2018-01-04T01:49:38.459Z,6.27
2018-01-04T01:52:06.888Z,8.80
2018-01-04T01:54:35.382Z,6.90
2018-01-04T01:57:03.781Z,8.10
2018-01-04T01:59:32.313Z,7.10
2018-01-04T02:02:00.670Z,6.60
2018-01-04T02:04:29.012Z,6.73
2018-01-04T02:06:57.455Z,6.50
2018-01-04T02:09:25.824Z,6.47
2018-01-04T02:11:54.216Z,6.60
2018-01-04T02:14:22.566Z,6.23
2018-01-04T02:16:50.925Z,6.93
2018-01-04T02:19:30.896Z,6.60
2018-01-04T02:22:10.885Z,6.90
2018-01-04T02:24:51.001Z,6.70
2018-01-04T02:30:36.660Z,8.50
2018-01-04T02:33:26.910Z,7.20
2018-01-04T02:36:07.035Z,8.03
2018-01-04T02:38:46.807Z,7.27
2018-01-04T02:41:26.603Z,6.90
2018-01-04T02:43:59.457Z,7.57
2018-01-04T02:46:27.539Z,6.10
2018-01-04T02:48:55.628Z,7.60
2018-01-04T02:51:23.712Z,8.50
2018-01-04T02:53:51.795Z,8.40
2018-01-04T02:56:19.867Z,6.80
2018-01-04T02:58:47.988Z,6.77
2018-01-04T03:01:16.055Z,6.03
2018-01-04T03:03:44.152Z,7.20
2018-01-04T03:06:12.250Z,7.03
2018-01-04T03:08:40.322Z,6.80
2018-01-04T03:11:08.388Z,8.50
2018-01-04T03:13:36.483Z,7.60
2018-01-04T03:16:04.558Z,6.77
2018-01-04T03:18:32.660Z,6.87
2018-01-04T03:21:00.813Z,6.13
2018-01-04T03:23:34.560Z,7.20
2018-01-04T03:26:09.304Z,7.60
2018-01-04T03:28:43.015Z,7.70
2018-01-04T03:31:16.584Z,8.60
2018-01-04T03:33:50.278Z,6.77
2018-01-04T03:36:24.003Z,6.90
2018-01-04T03:38:57.681Z,5.90
2018-01-04T03:41:31.419Z,6.77
2018-01-04T03:44:04.977Z,5.53
2018-01-04T03:46:38.739Z,6.00
2018-01-04T03:49:12.350Z,6.40
2018-01-04T03:51:46.154Z,6.57
2018-01-04T03:54:19.699Z,5.83
2018-01-04T03:56:53.429Z,6.33
2018-01-04T03:59:27.099Z,6.80
2018-01-04T04:02:00.709Z,8.60
2018-01-04T04:04:34.180Z,7.60
2018-01-04T04:07:07.965Z,8.00
2018-01-04T04:09:36.159Z,7.30
2018-01-04T04:12:04.224Z,7.57
2018-01-04T04:14:32.343Z,8.20
2018-01-04T04:17:00.427Z,7.70
2018-01-04T04:19:28.499Z,7.73
2018-01-04T04:21:56.623Z,7.87
2018-01-04T04:24:24.712Z,9.80
2018-01-04T04:26:52.806Z,8.33
2018-01-04T04:29:20.911Z,7.90
2018-01-04T04:31:49.007Z,8.80
2018-01-04T04:34:17.072Z,8.90
2018-01-04T04:36:45.153Z,7.70
2018-01-04T04:39:13.218Z,8.20
2018-01-04T04:41:41.326Z,7.87
2018-01-04T04:44:09.392Z,8.50
2018-01-04T04:46:37.463Z,8.53
2018-01-04T04:49:05.572Z,7.60
2018-01-04T04:51:33.639Z,7.63
2018-01-04T04:54:01.848Z,7.67
2018-01-04T04:56:29.924Z,7.47
2018-01-04T04:58:57.995Z,7.43
2018-01-04T05:01:26.056Z,7.20
2018-01-04T05:03:54.134Z,8.33
2018-01-04T05:06:22.232Z,7.83
2018-01-04T05:08:50.298Z,7.10
2018-01-04T05:11:18.460Z,8.00
2018-01-04T05:13:46.538Z,7.50
2018-01-04T05:16:14.607Z,6.50
2018-01-04T05:18:42.704Z,5.70
2018-01-04T05:21:10.786Z,5.20
2018-01-04T05:23:38.954Z,5.17
2018-01-04T05:26:07.042Z,5.73
2018-01-04T05:28:35.116Z,6.17
2018-01-04T05:31:03.334Z,5.77
2018-01-04T05:33:31.420Z,8.33
2018-01-04T05:35:59.492Z,5.57
2018-01-04T05:38:27.593Z,5.30
2018-01-04T05:40:55.658Z,6.00
2018-01-04T05:43:23.808Z,5.03
2018-01-04T05:45:51.896Z,7.53
2018-01-04T05:48:19.987Z,7.40
2018-01-04T05:50:48.080Z,5.30
2018-01-04T05:53:16.168Z,5.53
2018-01-04T05:55:44.274Z,5.20
2018-01-04T05:58:12.326Z,5.83
2018-01-04T06:00:40.415Z,6.03
2018-01-04T06:03:08.645Z,5.80
2018-01-04T06:05:36.752Z,6.30
2018-01-04T06:08:04.869Z,8.40
2018-01-04T06:10:32.956Z,7.07
2018-01-04T06:13:01.033Z,9.03
2018-01-04T06:15:29.131Z,8.03
2018-01-04T06:17:57.266Z,7.60
2018-01-04T06:20:25.343Z,7.90
2018-01-04T06:22:53.435Z,6.67
2018-01-04T06:25:21.524Z,5.90
2018-01-04T06:27:49.612Z,6.53
2018-01-04T06:30:17.690Z,5.87
2018-01-04T06:32:45.898Z,5.90
2018-01-04T06:35:13.999Z,5.70
2018-01-04T06:37:42.059Z,3.87
2018-01-04T06:40:10.147Z,5.17
2018-01-04T06:42:38.231Z,6.33
2018-01-04T06:45:06.340Z,5.60
2018-01-04T06:47:34.452Z,6.40
2018-01-04T06:50:02.516Z,7.23
2018-01-04T06:52:30.590Z,7.00
2018-01-04T06:54:58.675Z,10.40
2018-01-04T06:57:26.773Z,8.90
2018-01-04T06:59:54.895Z,9.40
2018-01-04T07:02:22.990Z,7.80
2018-01-04T07:04:51.055Z,10.20
2018-01-04T07:07:19.156Z,8.57
2018-01-04T07:09:47.235Z,9.33
2018-01-04T07:12:15.348Z,8.50
2018-01-04T07:14:43.419Z,8.17
2018-01-04T07:17:11.506Z,8.17
2018-01-04T07:19:39.628Z,8.40
2018-01-04T07:22:07.702Z,7.80
2018-01-04T07:24:35.830Z,9.67
2018-01-04T07:27:03.899Z,7.03
2018-01-04T07:29:31.979Z,7.30
2018-01-04T07:32:00.064Z,5.77
2018-01-04T07:34:28.144Z,5.00
2018-01-04T07:36:56.265Z,5.53
2018-01-04T07:39:24.354Z,5.23
2018-01-04T07:41:52.720Z,5.33
2018-01-04T07:44:21.147Z,5.00
2018-01-04T07:46:49.491Z,4.50
2018-01-04T07:49:17.860Z,4.80
2018-01-04T07:51:46.214Z,4.47
2018-01-04T07:54:14.598Z,6.10
2018-01-04T07:56:42.967Z,7.13
2018-01-04T07:59:11.358Z,7.93
2018-01-04T08:01:39.732Z,8.53
2018-01-04T08:04:08.117Z,8.67
2018-01-04T08:06:36.507Z,10.10
2018-01-04T08:09:05.029Z,11.17
2018-01-04T08:11:33.457Z,9.20
2018-01-04T08:14:01.855Z,9.70
2018-01-04T08:16:30.210Z,8.97
2018-01-04T08:18:58.578Z,10.23
2018-01-04T08:21:26.971Z,9.60
2018-01-04T08:23:55.371Z,10.33
2018-01-04T08:26:23.756Z,8.83
2018-01-04T08:28:52.274Z,9.60
2018-01-04T08:31:20.708Z,9.67
2018-01-04T08:33:49.120Z,9.30
2018-01-04T08:36:17.485Z,8.80
2018-01-04T08:38:45.882Z,10.03
2018-01-04T08:41:14.265Z,11.70
2018-01-04T08:43:46.603Z,9.50
2018-01-04T08:46:15.072Z,9.17
2018-01-04T08:48:43.440Z,8.47
2018-01-04T08:51:11.812Z,9.60
2018-01-04T08:53:40.168Z,9.30
2018-01-04T08:56:08.550Z,8.57
2018-01-04T08:58:36.921Z,8.70
2018-01-04T09:01:05.327Z,8.47
2018-01-04T09:03:33.691Z,8.23
2018-01-04T09:06:02.167Z,8.47
2018-01-04T09:08:30.608Z,7.00
2018-01-04T09:10:58.983Z,9.10
2018-01-04T09:13:27.382Z,8.27
2018-01-04T09:15:55.823Z,7.97
2018-01-04T09:18:24.188Z,8.60
2018-01-04T09:20:52.800Z,8.33
2018-01-04T09:23:21.176Z,7.43
2018-01-04T09:25:49.558Z,8.27
2018-01-04T09:28:17.908Z,9.50
2018-01-04T09:30:46.303Z,8.13
2018-01-04T09:33:14.766Z,7.40
2018-01-04T09:35:43.141Z,7.23
2018-01-04T09:38:11.500Z,8.70
2018-01-04T09:40:39.856Z,8.37
2018-01-04T09:43:08.202Z,8.20
2018-01-04T09:45:36.586Z,8.80
2018-01-04T09:48:05.017Z,7.90
2018-01-04T09:50:33.407Z,9.17
2018-01-04T09:53:01.786Z,7.20
2018-01-04T09:55:31.091Z,8.40
2018-01-04T09:57:59.461Z,7.67
2018-01-04T10:00:27.989Z,7.67
2018-01-04T10:02:56.333Z,8.87
2018-01-04T10:05:24.769Z,8.10
2018-01-04T10:07:53.270Z,6.10
2018-01-04T10:10:21.648Z,7.20
2018-01-04T10:12:49.996Z,7.53
2018-01-04T10:15:18.384Z,7.40
2018-01-04T10:17:46.788Z,7.03
2018-01-04T10:20:15.160Z,7.90
2018-01-04T10:22:43.553Z,7.60
2018-01-04T10:25:11.929Z,7.60
2018-01-04T10:27:40.316Z,8.83
2018-01-04T10:30:08.675Z,8.07
2018-01-04T10:32:37.036Z,8.40
2018-01-04T10:35:05.436Z,8.67
2018-01-04T10:37:33.812Z,7.43
2018-01-04T10:40:02.177Z,8.50
2018-01-04T10:42:30.623Z,6.50
2018-01-04T10:44:59.003Z,6.80
2018-01-04T10:47:27.491Z,6.03
2018-01-04T10:52:30.590Z,5.40
2018-01-04T10:54:59.116Z,5.87
2018-01-04T10:57:27.482Z,6.00
2018-01-04T10:59:55.909Z,6.00
2018-01-04T11:02:24.264Z,5.93
2018-01-04T11:04:52.659Z,4.50
2018-01-04T11:07:21.068Z,4.77
2018-01-04T11:09:49.424Z,6.00
2018-01-04T11:12:17.786Z,3.60
2018-01-04T11:14:46.268Z,3.57
2018-01-04T11:17:14.639Z,2.70
2018-01-04T11:19:42.979Z,2.93
2018-01-04T11:22:11.370Z,2.90
2018-01-04T11:24:39.733Z,1.63
2018-01-04T11:27:08.157Z,2.30
2018-01-04T11:29:36.508Z,1.57
2018-01-04T11:32:06.043Z,1.87
2018-01-04T11:34:34.405Z,1.40
2018-01-04T11:37:02.777Z,1.50
2018-01-04T11:39:31.174Z,1.70
2018-01-04T11:41:59.615Z,1.40
2018-01-04T11:44:28.127Z,1.50
2018-01-04T11:46:56.497Z,1.23
2018-01-04T11:49:24.897Z,0.73
2018-01-04T11:51:53.330Z,1.20
2018-01-04T11:56:56.304Z,1.57
2018-01-04T11:59:24.729Z,5.00
2018-01-04T12:01:53.076Z,1.30
2018-01-04T12:04:21.465Z,1.17
2018-01-04T12:06:49.819Z,1.30
2018-01-04T12:09:22.038Z,1.13
2018-01-04T12:11:50.394Z,1.10
2018-01-04T12:14:18.806Z,0.90
2018-01-04T12:16:47.174Z,0.70
2018-01-04T12:19:15.532Z,0.70
2018-01-04T12:21:43.899Z,0.70
2018-01-04T12:24:12.256Z,0.70
2018-01-04T12:26:40.680Z,1.13
2018-01-04T12:29:09.088Z,0.60
2018-01-04T12:31:37.452Z,0.70
2018-01-04T12:34:05.824Z,0.60
2018-01-04T12:36:34.192Z,0.67
2018-01-04T12:39:02.616Z,0.40
2018-01-04T12:41:31.040Z,0.50
2018-01-04T12:43:59.496Z,0.60
2018-01-04T12:46:27.866Z,0.60
2018-01-04T12:48:56.338Z,0.67
2018-01-04T12:51:24.725Z,0.50
2018-01-04T12:53:53.095Z,0.73
2018-01-04T12:56:21.456Z,0.60
2018-01-04T12:58:49.866Z,0.90
2018-01-04T13:01:18.233Z,0.63
2018-01-04T13:03:46.673Z,0.50
2018-01-04T13:06:15.037Z,0.57
2018-01-04T13:08:43.401Z,0.47
2018-01-04T13:11:11.750Z,0.60
2018-01-04T13:13:40.103Z,0.70
2018-01-04T13:16:08.494Z,0.80
2018-01-04T13:18:36.882Z,0.70
2018-01-04T13:21:06.006Z,0.60
2018-01-04T13:23:34.399Z,0.70
2018-01-04T13:26:02.790Z,0.50
2018-01-04T13:28:31.214Z,0.60
2018-01-04T13:30:59.569Z,0.80
2018-01-04T13:33:27.973Z,0.67
2018-01-04T13:35:56.335Z,2.03
2018-01-04T13:38:24.802Z,0.50
2018-01-04T13:40:53.214Z,0.60
2018-01-04T13:43:21.695Z,0.90
2018-01-04T13:45:50.116Z,0.80
2018-01-04T13:48:18.478Z,0.70
2018-01-04T13:50:46.845Z,0.50
2018-01-04T13:53:15.298Z,0.70
2018-01-04T13:55:43.639Z,0.80
2018-01-04T13:58:11.992Z,0.70
2018-01-04T14:00:40.413Z,0.80
2018-01-04T14:03:08.970Z,0.90
2018-01-04T14:05:37.360Z,0.80
2018-01-04T14:08:05.771Z,0.70
2018-01-04T14:10:34.152Z,0.57
2018-01-04T14:13:02.505Z,0.70
2018-01-04T14:15:30.954Z,0.60
2018-01-04T14:17:59.624Z,0.50
2018-01-04T14:20:28.035Z,0.40
2018-01-04T14:22:56.455Z,0.50
2018-01-04T14:25:24.838Z,0.40
2018-01-04T14:27:53.275Z,0.30
2018-01-04T14:30:21.628Z,0.40
2018-01-04T14:32:50.020Z,0.57
2018-01-04T14:35:18.388Z,0.40
2018-01-04T14:37:46.837Z,0.40
2018-01-04T14:40:15.202Z,0.50
2018-01-04T14:42:43.552Z,0.33
2018-01-04T14:45:12.095Z,0.50
2018-01-04T14:47:40.464Z,0.40
2018-01-04T14:50:08.812Z,0.47
2018-01-04T14:52:37.150Z,0.50
2018-01-04T14:55:05.535Z,0.30
2018-01-04T14:57:33.903Z,0.50
2018-01-04T15:00:02.287Z,0.30
2018-01-04T15:02:30.703Z,0.47
2018-01-04T15:04:59.116Z,0.40
2018-01-04T15:07:27.506Z,0.30
2018-01-04T15:09:55.913Z,0.40
2018-01-04T15:12:24.455Z,0.30
2018-01-04T15:14:52.826Z,0.30
2018-01-04T15:17:21.229Z,0.40
2018-01-04T15:19:49.551Z,0.30
2018-01-04T15:22:17.993Z,0.40
2018-01-04T15:24:46.351Z,0.40
2018-01-04T15:27:14.708Z,0.70
2018-01-04T15:29:43.062Z,0.30
2018-01-04T15:32:11.443Z,0.47
2018-01-04T15:34:39.818Z,0.40
2018-01-04T15:37:08.233Z,0.30
2018-01-04T15:39:36.598Z,0.43
2018-01-04T15:42:04.943Z,0.43
2018-01-04T15:44:33.312Z,0.30
2018-01-04T15:47:01.675Z,0.40
2018-01-04T15:49:30.059Z,0.30
2018-01-04T15:51:58.402Z,0.30
2018-01-04T15:54:26.807Z,0.30
2018-01-04T15:56:55.144Z,0.30
2018-01-04T15:59:23.533Z,0.30
2018-01-04T16:01:51.920Z,0.50
2018-01-04T16:04:20.320Z,0.40
2018-01-04T16:06:48.660Z,0.30
2018-01-04T16:09:17.024Z,0.30
2018-01-04T16:11:45.376Z,0.30
2018-01-04T16:14:13.744Z,0.30
2018-01-04T16:16:42.161Z,0.40
2018-01-04T16:19:10.532Z,0.90
2018-01-04T16:21:39.004Z,0.70
2018-01-04T16:24:07.354Z,0.80
2018-01-04T16:26:35.736Z,0.90
2018-01-04T16:29:04.102Z,1.57
2018-01-04T16:31:32.465Z,1.80
2018-01-04T16:34:00.861Z,2.10
2018-01-04T16:36:29.219Z,3.60
2018-01-04T16:38:57.576Z,2.50
2018-01-04T16:41:25.963Z,3.70
2018-01-04T16:43:54.326Z,3.33
2018-01-04T16:46:22.768Z,3.70
2018-01-04T16:48:51.143Z,3.40
2018-01-04T16:51:19.510Z,4.30
2018-01-04T16:53:47.891Z,5.03
2018-01-04T16:56:16.263Z,4.73
2018-01-04T16:58:44.615Z,4.97
2018-01-04T17:01:13.008Z,4.40
2018-01-04T17:03:41.371Z,4.90
2018-01-04T17:06:09.777Z,5.03
2018-01-04T17:08:38.144Z,4.57
2018-01-04T17:11:06.537Z,5.27
2018-01-04T17:13:34.896Z,4.57
2018-01-04T17:16:03.253Z,6.70
2018-01-04T17:18:31.644Z,7.00
2018-01-04T17:21:00.016Z,6.10
2018-01-04T17:23:28.432Z,4.73
2018-01-04T17:25:56.791Z,6.17
2018-01-04T17:28:25.157Z,6.27
2018-01-04T17:30:53.644Z,6.33
2018-01-04T17:33:22.019Z,6.70
2018-01-04T17:35:50.502Z,5.13
2018-01-04T17:38:18.885Z,5.40
2018-01-04T17:40:47.235Z,6.17
2018-01-04T17:43:15.588Z,6.07
2018-01-04T17:45:43.939Z,7.10
2018-01-04T17:48:12.328Z,6.53
2018-01-04T17:50:40.684Z,6.80
2018-01-04T17:53:09.077Z,7.77
2018-01-04T17:55:37.466Z,5.63
2018-01-04T17:58:05.826Z,6.40
2018-01-04T18:00:34.308Z,6.40
2018-01-04T18:03:02.657Z,7.33
2018-01-04T18:05:31.058Z,8.67
2018-01-04T18:07:59.453Z,6.63
2018-01-04T18:10:27.827Z,6.33
2018-01-04T18:12:56.189Z,6.00
2018-01-04T18:15:24.562Z,6.77
2018-01-04T18:17:52.941Z,6.10
2018-01-04T18:20:21.327Z,5.70
2018-01-04T18:22:49.717Z,5.60
2018-01-04T18:25:18.129Z,6.63
2018-01-04T18:27:46.491Z,6.00
2018-01-04T18:30:14.971Z,5.97
2018-01-04T18:32:43.428Z,6.00
2018-01-04T18:35:11.771Z,6.30
2018-01-04T18:37:40.147Z,5.30
2018-01-04T18:40:08.506Z,4.83
2018-01-04T18:42:36.895Z,5.33
2018-01-04T18:45:05.256Z,5.33
2018-01-04T18:47:33.651Z,5.40
2018-01-04T18:50:02.012Z,5.90
2018-01-04T18:52:30.408Z,5.80
2018-01-04T18:54:58.804Z,5.80
2018-01-04T18:57:27.263Z,6.27
2018-01-04T18:59:55.628Z,5.97
2018-01-04T19:02:24.031Z,5.77
2018-01-04T19:04:52.388Z,5.50
2018-01-04T19:07:20.781Z,5.00
2018-01-04T19:09:49.158Z,3.80
2018-01-04T19:12:17.506Z,4.87
2018-01-04T19:14:45.867Z,4.13
2018-01-04T19:17:14.476Z,5.13
2018-01-04T19:19:42.862Z,5.80
2018-01-04T19:22:11.383Z,5.30
2018-01-04T19:24:39.939Z,6.17
2018-01-04T19:27:08.295Z,4.57
2018-01-04T19:29:36.651Z,5.93
2018-01-04T19:34:39.642Z,6.67
2018-01-04T19:37:08.039Z,6.77
2018-01-04T19:39:36.416Z,6.20
2018-01-04T19:42:04.779Z,6.23
2018-01-04T19:44:33.269Z,4.53
2018-01-04T19:47:01.657Z,4.97
2018-01-04T19:49:30.015Z,5.87
2018-01-04T19:51:58.409Z,7.70
2018-01-04T19:54:26.792Z,6.63
2018-01-04T19:56:55.161Z,4.67
2018-01-04T19:59:23.523Z,12.93
2018-01-04T20:01:51.904Z,6.40
2018-01-04T20:04:20.326Z,4.10
2018-01-04T20:06:49.338Z,3.80
2018-01-04T20:09:17.725Z,5.70
2018-01-04T20:11:46.135Z,4.60
2018-01-04T20:14:14.508Z,3.97
2018-01-04T20:16:42.864Z,4.20
2018-01-04T20:19:11.228Z,4.67
2018-01-04T20:21:39.623Z,4.63
2018-01-04T20:24:08.060Z,4.00
2018-01-04T20:26:36.436Z,5.63
2018-01-04T20:29:04.816Z,5.40
2018-01-04T20:31:33.174Z,5.77
2018-01-04T20:34:01.621Z,8.00
2018-01-04T20:36:30.074Z,8.73
2018-01-04T20:38:58.420Z,7.37
2018-01-04T20:41:26.788Z,6.80
2018-01-04T20:43:55.174Z,7.20
2018-01-04T20:46:23.562Z,7.50
2018-01-04T20:48:51.916Z,7.27
2018-01-04T20:51:20.279Z,7.87
2018-01-04T20:53:48.643Z,6.90
2018-01-04T20:56:17.009Z,6.33
2018-01-04T20:58:45.399Z,6.57
2018-01-04T21:01:13.835Z,6.40
2018-01-04T21:03:42.215Z,7.37
2018-01-04T21:06:10.584Z,6.30
2018-01-04T21:08:40.071Z,5.10
2018-01-04T21:11:10.268Z,7.10
2018-01-04T21:13:38.624Z,5.60
2018-01-04T21:16:06.985Z,6.83
2018-01-04T21:18:35.347Z,5.43
2018-01-04T21:21:03.815Z,4.50
2018-01-04T21:23:32.171Z,4.70
2018-01-04T21:26:00.566Z,5.23
2018-01-04T21:28:28.920Z,4.00
2018-01-04T21:30:57.307Z,4.53
2018-01-04T21:33:25.655Z,4.93
2018-01-04T21:35:54.032Z,4.83
2018-01-04T21:38:22.426Z,5.73
2018-01-04T21:40:50.776Z,5.97
2018-01-04T21:43:19.156Z,4.27
2018-01-04T21:45:47.512Z,4.10
2018-01-04T21:48:15.919Z,4.30
2018-01-04T21:50:44.288Z,4.97
2018-01-04T21:53:12.930Z,5.83
2018-01-04T21:55:41.294Z,6.20
2018-01-04T21:58:09.700Z,5.60
2018-01-04T22:00:38.096Z,5.57
2018-01-04T22:03:06.612Z,4.80
2018-01-04T22:05:34.959Z,6.20
2018-01-04T22:08:03.337Z,4.80
2018-01-04T22:10:31.700Z,5.53
2018-01-04T22:13:00.103Z,4.73
2018-01-04T22:15:28.452Z,5.30
2018-01-04T22:17:56.831Z,4.47
2018-01-04T22:20:25.363Z,5.20
2018-01-04T22:22:53.739Z,5.40
2018-01-04T22:25:22.170Z,5.00
2018-01-04T22:27:50.567Z,4.20
2018-01-04T22:30:18.952Z,5.70
2018-01-04T22:32:47.324Z,5.30
2018-01-04T22:35:15.694Z,5.20
2018-01-04T22:37:44.063Z,4.37
2018-01-04T22:40:12.520Z,5.33
2018-01-04T22:42:40.933Z,5.20
2018-01-04T22:45:09.327Z,5.33
2018-01-04T22:47:37.691Z,5.80
2018-01-04T22:50:06.075Z,4.77
2018-01-04T22:52:34.419Z,6.17
2018-01-04T22:55:02.799Z,8.70
2018-01-04T22:57:31.163Z,4.60
2018-01-04T22:59:59.520Z,5.17
2018-01-04T23:02:27.887Z,4.50
2018-01-04T23:04:56.235Z,4.20
2018-01-04T23:07:24.631Z,3.67
2018-01-04T23:09:53.004Z,5.13
2018-01-04T23:12:21.355Z,4.40
2018-01-04T23:14:49.718Z,4.13
2018-01-04T23:17:18.073Z,4.20
2018-01-04T23:19:46.459Z,5.20
2018-01-04T23:22:14.826Z,5.63
2018-01-04T23:24:43.188Z,4.80
2018-01-04T23:27:11.580Z,4.33
2018-01-04T23:29:39.935Z,5.30
2018-01-04T23:32:08.293Z,4.13
2018-01-04T23:34:36.680Z,5.30
2018-01-04T23:37:05.042Z,5.97
2018-01-04T23:39:33.528Z,4.00
2018-01-04T23:42:01.900Z,4.80
2018-01-04T23:44:30.263Z,4.33
2018-01-04T23:46:58.612Z,5.83
2018-01-04T23:49:26.967Z,5.03
2018-01-04T23:51:55.343Z,5.10
2018-01-04T23:54:23.718Z,4.40
2018-01-04T23:56:52.085Z,4.20
2018-01-04T23:59:20.433Z,4.17
